Abrolhos Island North Island, Australia
Current Conditions -  °F | °C
As of 12:30 PM on Sunday 23 Nov 2014 (Local Time) from YGEL Reporting Station
Few Clouds Few Clouds  
Wind Chill: 75°   Ceiling: Unl
Heat Index: 75°   Visibility: 6mi
Dew Point: 46°   Wind: 22mph
Humidity: 36%   Direction: 190°S
Pressure: 30"   Gusts: NA
Location:  28.3°S, 113.58°E
Report Text: YGEL 230430Z 19019KT 9999 FEW045 24/08 Q1016
Loading
Personal Weather Stations






























Interactive Weather Map New forecast layout! Learn more

10-Day Weather Forecast

Advertisements
Track Severe Weather on mobile